Doris, Iowa
Current Conditions -  °F | °C
As of 4:55 PM on Saturday 25 Oct 2014 (Local Time) from KIIB Reporting Station
Clear Clear  
Wind Chill: 66°   Ceiling: Unl
Heat Index: 66°   Visibility: 10mi
Dew Point: 32°   Wind: 12mph
Humidity: 28%   Direction: 310°NW
Pressure: 30.04"   Gusts: NA
Location:  42.46°N, 91.7742°W
Report Text: KIIB 252155Z AUTO 31010KT 10SM CLR 19/00 A3004 RMK AO2
Loading
Personal Weather Stations






























Interactive Weather Map
Tropical Storm Tracking
New forecast layout! Learn more

10-Day Weather Forecast

Advertisements
Track Severe Weather on mobile